Time,TemperatureF,DewpointF,PressureIn,WindDirection,WindDirectionDegrees,WindSpeedMPH,WindSpeedGustMPH,Humidity,HourlyPrecipIn,Conditions,Clouds,dailyrainin,SoftwareType,DateUTC
2013-06-07 00:01:00,66.0,50.0,29.93,NNE,22,1.0,4.0,56,0.00,,,0.00,,2013-06-07 07:01:00,
2013-06-07 00:11:00,66.0,50.0,29.93,NNE,22,1.0,4.0,56,0.00,,,0.00,,2013-06-07 07:11:00,
2013-06-07 00:22:00,66.0,50.0,29.93,WNW,302,3.0,6.0,57,0.00,,,0.00,,2013-06-07 07:22:00,
2013-06-07 00:32:00,66.0,50.0,29.95,WSW,241,3.0,4.0,57,0.00,,,0.00,,2013-06-07 07:32:00,
2013-06-07 00:42:00,66.0,50.0,29.95,WSW,241,3.0,4.0,57,0.00,,,0.00,,2013-06-07 07:42:00,
2013-06-07 00:52:00,66.0,50.0,29.95,WSW,254,1.0,3.0,57,0.00,,,0.00,,2013-06-07 07:52:00,
2013-06-07 01:02:00,66.0,50.0,29.94,WSW,257,0.0,3.0,57,0.00,,,0.00,,2013-06-07 08:02:00,
2013-06-07 01:11:00,66.0,50.0,29.94,WSW,257,0.0,3.0,57,0.00,,,0.00,,2013-06-07 08:11:00,
2013-06-07 01:22:00,65.0,49.0,29.91,WSW,257,1.0,3.0,57,0.00,,,0.00,,2013-06-07 08:22:00,
2013-06-07 01:32:00,66.0,50.0,29.94,WSW,257,2.0,4.0,57,0.00,,,0.00,,2013-06-07 08:32:00,
2013-06-07 01:42:00,66.0,50.0,29.94,WSW,257,2.0,4.0,57,0.00,,,0.00,,2013-06-07 08:42:00,
2013-06-07 01:52:00,65.0,50.0,29.90,WSW,257,1.0,4.0,58,0.00,,,0.00,,2013-06-07 08:52:00,
2013-06-07 02:01:00,65.0,50.0,29.90,WSW,257,3.0,6.0,59,0.00,,,0.00,,2013-06-07 09:01:00,
2013-06-07 02:22:00,64.0,50.0,29.90,WSW,257,4.0,6.0,60,0.00,,,0.00,,2013-06-07 09:22:00,
2013-06-07 02:32:00,64.0,50.0,29.90,West,259,4.0,5.0,61,0.00,,,0.00,,2013-06-07 09:32:00,
2013-06-07 02:43:00,64.0,50.0,29.90,West,259,4.0,5.0,61,0.00,,,0.00,,2013-06-07 09:43:00,
2013-06-07 02:53:00,64.0,50.0,29.90,West,261,5.0,6.0,61,0.00,,,0.00,,2013-06-07 09:53:00,
2013-06-07 03:02:00,63.0,50.0,29.89,WSW,257,5.0,7.0,62,0.00,,,0.00,,2013-06-07 10:02:00,
2013-06-07 03:12:00,63.0,50.0,29.89,WSW,257,5.0,7.0,62,0.00,,,0.00,,2013-06-07 10:12:00,
2013-06-07 03:22:00,63.0,50.0,29.89,West,266,5.0,7.0,62,0.00,,,0.00,,2013-06-07 10:22:00,
2013-06-07 03:32:00,63.0,50.0,29.89,West,265,4.0,6.0,62,0.00,,,0.00,,2013-06-07 10:32:00,
2013-06-07 03:42:00,63.0,50.0,29.89,West,265,4.0,6.0,62,0.00,,,0.00,,2013-06-07 10:42:00,
2013-06-07 03:52:00,63.0,49.0,29.88,WSW,256,4.0,6.0,61,0.00,,,0.00,,2013-06-07 10:52:00,
2013-06-07 04:02:00,63.0,49.0,29.89,WSW,256,2.0,6.0,61,0.00,,,0.00,,2013-06-07 11:02:00,
2013-06-07 04:22:00,63.0,49.0,29.88,WSW,250,1.0,6.0,60,0.00,,,0.00,,2013-06-07 11:22:00,
2013-06-07 04:32:00,63.0,49.0,29.89,WSW,257,5.0,9.0,61,0.00,,,0.00,,2013-06-07 11:32:00,
2013-06-07 04:42:00,63.0,49.0,29.89,WSW,257,5.0,9.0,61,0.00,,,0.00,,2013-06-07 11:42:00,
2013-06-07 04:52:00,62.0,49.0,29.87,West,268,6.0,9.0,62,0.00,,,0.00,,2013-06-07 11:52:00,
2013-06-07 05:02:00,63.0,50.0,29.89,WSW,250,5.0,9.0,62,0.00,,,0.00,,2013-06-07 12:02:00,
2013-06-07 05:22:00,63.0,49.0,29.89,West,259,1.0,9.0,61,0.00,,,0.00,,2013-06-07 12:22:00,
2013-06-07 05:32:00,62.0,49.0,29.89,West,259,4.0,5.0,62,0.00,,,0.00,,2013-06-07 12:32:00,
2013-06-07 05:42:00,62.0,49.0,29.89,West,259,4.0,5.0,62,0.00,,,0.00,,2013-06-07 12:42:00,
2013-06-07 05:52:00,62.0,50.0,29.89,WSW,257,3.0,5.0,64,0.00,,,0.00,,2013-06-07 12:52:00,
2013-06-07 06:02:00,61.0,49.0,29.89,WSW,257,4.0,5.0,65,0.00,,,0.00,,2013-06-07 13:02:00,
2013-06-07 06:22:00,61.0,49.0,29.89,WSW,242,1.0,6.0,64,0.00,,,0.00,,2013-06-07 13:22:00,
2013-06-07 06:32:00,62.0,50.0,29.88,SW,219,0.0,2.0,64,0.00,,,0.00,,2013-06-07 13:32:00,
2013-06-07 06:42:00,62.0,50.0,29.88,SW,219,0.0,2.0,64,0.00,,,0.00,,2013-06-07 13:42:00,
2013-06-07 06:52:00,62.0,49.0,29.89,SW,219,4.0,6.0,63,0.00,,,0.00,,2013-06-07 13:52:00,
2013-06-07 07:01:00,64.0,50.0,29.91,SW,234,3.0,6.0,60,0.00,,,0.00,,2013-06-07 14:01:00,
2013-06-07 07:22:00,65.0,50.0,29.90,WSW,245,2.0,6.0,59,0.00,,,0.00,,2013-06-07 14:22:00,
2013-06-07 07:32:00,66.0,51.0,29.89,WSW,245,2.0,4.0,58,0.00,,,0.00,,2013-06-07 14:32:00,
2013-06-07 07:42:00,66.0,51.0,29.89,WSW,245,2.0,4.0,58,0.00,,,0.00,,2013-06-07 14:42:00,
2013-06-07 07:52:00,68.0,52.0,29.91,ESE,113,0.0,3.0,56,0.00,,,0.00,,2013-06-07 14:52:00,
2013-06-07 08:01:00,71.0,52.0,29.90,SSE,161,0.0,1.0,52,0.00,,,0.00,,2013-06-07 15:01:00,
2013-06-07 08:12:00,71.0,52.0,29.90,SSE,161,0.0,1.0,52,0.00,,,0.00,,2013-06-07 15:12:00,
2013-06-07 08:22:00,72.0,51.0,29.90,SE,144,0.0,1.0,48,0.00,,,0.00,,2013-06-07 15:22:00,
2013-06-07 08:33:00,74.0,51.0,29.90,SE,144,0.0,0.0,45,0.00,,,0.00,,2013-06-07 15:33:00,
2013-06-07 08:43:00,74.0,51.0,29.90,SE,144,0.0,0.0,45,0.00,,,0.00,,2013-06-07 15:43:00,
2013-06-07 08:53:00,78.0,45.0,29.92,SE,143,1.0,2.0,31,0.00,,,0.00,,2013-06-07 15:53:00,
2013-06-07 09:03:00,82.0,45.0,29.91,SE,143,0.0,2.0,27,0.00,,,0.00,,2013-06-07 16:03:00,
2013-06-07 09:12:00,82.0,45.0,29.91,SE,143,0.0,2.0,27,0.00,,,0.00,,2013-06-07 16:12:00,
2013-06-07 09:22:00,85.0,44.0,29.89,NNE,19,3.0,5.0,24,0.00,,,0.00,,2013-06-07 16:22:00,
2013-06-07 09:32:00,88.0,44.0,29.91,North,5,4.0,11.0,22,0.00,,,0.00,,2013-06-07 16:32:00,
2013-06-07 09:42:00,88.0,44.0,29.91,North,5,4.0,11.0,22,0.00,,,0.00,,2013-06-07 16:42:00,
2013-06-07 09:53:00,90.0,45.0,29.90,ENE,57,4.0,6.0,21,0.00,,,0.00,,2013-06-07 16:53:00,
2013-06-07 10:01:00,92.0,44.0,29.90,NNE,27,8.0,11.0,19,0.00,,,0.00,,2013-06-07 17:01:00,
2013-06-07 10:12:00,92.0,44.0,29.90,NNE,27,8.0,11.0,19,0.00,,,0.00,,2013-06-07 17:12:00,
2013-06-07 10:22:00,93.0,45.0,29.90,NNE,24,3.0,8.0,19,0.00,,,0.00,,2013-06-07 17:22:00,
2013-06-07 10:32:00,93.0,45.0,29.88,NNE,30,5.0,11.0,19,0.00,,,0.00,,2013-06-07 17:32:00,
2013-06-07 10:42:00,93.0,45.0,29.88,NNE,30,5.0,11.0,19,0.00,,,0.00,,2013-06-07 17:42:00,
2013-06-07 10:52:00,94.0,41.0,29.89,ENE,71,5.0,13.0,16,0.00,,,0.00,,2013-06-07 17:52:00,
2013-06-07 11:12:00,94.0,41.0,29.89,NNE,31,2.0,14.0,16,0.00,,,0.00,,2013-06-07 18:12:00,
2013-06-07 11:22:00,95.0,40.0,29.89,ENE,71,3.0,10.0,15,0.00,,,0.00,,2013-06-07 18:22:00,
2013-06-07 11:32:00,94.0,38.0,29.90,NNE,24,8.0,15.0,14,0.00,,,0.00,,2013-06-07 18:32:00,
2013-06-07 11:42:00,94.0,38.0,29.90,NNE,24,8.0,15.0,14,0.00,,,0.00,,2013-06-07 18:42:00,
2013-06-07 11:57:00,95.0,38.0,29.90,ENE,72,5.0,18.0,14,0.00,,,0.00,,2013-06-07 18:57:00,
2013-06-07 12:12:00,96.0,35.0,29.93,NNE,29,7.0,12.0,12,0.00,,,0.00,,2013-06-07 19:12:00,
2013-06-07 12:23:00,95.0,34.0,29.89,ENE,70,7.0,14.0,12,0.00,,,0.00,,2013-06-07 19:23:00,
2013-06-07 12:32:00,97.0,36.0,29.91,NE,47,4.0,14.0,12,0.00,,,0.00,,2013-06-07 19:32:00,
2013-06-07 12:43:00,97.0,36.0,29.91,NE,47,4.0,14.0,12,0.00,,,0.00,,2013-06-07 19:43:00,
2013-06-07 12:55:00,97.0,36.0,29.91,North,5,6.0,14.0,12,0.00,,,0.00,,2013-06-07 19:55:00,
2013-06-07 13:02:00,99.0,35.0,29.90,NE,42,7.0,14.0,11,0.00,,,0.00,,2013-06-07 20:02:00,
2013-06-07 13:12:00,99.0,35.0,29.90,NE,42,7.0,14.0,11,0.00,,,0.00,,2013-06-07 20:12:00,
2013-06-07 13:22:00,98.0,32.0,29.88,NE,40,9.0,16.0,10,0.00,,,0.00,,2013-06-07 20:22:00,
2013-06-07 13:43:00,98.0,32.0,29.88,NE,40,9.0,16.0,10,0.00,,,0.00,,2013-06-07 20:43:00,
2013-06-07 13:57:00,99.0,33.0,29.88,NNW,342,7.0,14.0,10,0.00,,,0.00,,2013-06-07 20:57:00,
2013-06-07 14:14:00,100.0,28.0,29.90,ENE,75,3.0,10.0,8,0.00,,,0.00,,2013-06-07 21:14:00,
2013-06-07 14:23:00,100.0,36.0,29.88,East,87,2.0,5.0,11,0.00,,,0.00,,2013-06-07 21:23:00,
2013-06-07 14:33:00,99.0,43.0,29.88,ESE,113,6.0,13.0,15,0.00,,,0.00,,2013-06-07 21:33:00,
2013-06-07 14:43:00,99.0,43.0,29.88,ESE,113,6.0,13.0,15,0.00,,,0.00,,2013-06-07 21:43:00,
2013-06-07 14:57:00,96.0,44.0,29.86,SW,217,7.0,16.0,17,0.00,,,0.00,,2013-06-07 21:57:00,
2013-06-07 15:03:00,97.0,45.0,29.86,SSE,162,9.0,14.0,17,0.00,,,0.00,,2013-06-07 22:03:00,
2013-06-07 15:13:00,97.0,45.0,29.86,SSE,162,9.0,14.0,17,0.00,,,0.00,,2013-06-07 22:13:00,
2013-06-07 15:24:00,95.0,45.0,29.85,SW,225,6.0,19.0,18,0.00,,,0.00,,2013-06-07 22:24:00,
2013-06-07 15:33:00,94.0,43.0,29.86,SE,136,9.0,17.0,17,0.00,,,0.00,,2013-06-07 22:33:00,
2013-06-07 15:43:00,94.0,43.0,29.86,SE,136,9.0,17.0,17,0.00,,,0.00,,2013-06-07 22:43:00,
2013-06-07 15:57:00,94.0,45.0,29.85,SSE,166,8.0,16.0,19,0.00,,,0.00,,2013-06-07 22:57:00,
2013-06-07 16:02:00,93.0,45.0,29.85,SSW,192,9.0,18.0,19,0.00,,,0.00,,2013-06-07 23:02:00,
2013-06-07 16:13:00,93.0,45.0,29.85,SSW,192,9.0,18.0,19,0.00,,,0.00,,2013-06-07 23:13:00,
2013-06-07 16:23:00,93.0,46.0,29.85,South,171,9.0,17.0,20,0.00,,,0.00,,2013-06-07 23:23:00,
2013-06-07 16:32:00,93.0,45.0,29.84,SW,234,8.0,18.0,19,0.00,,,0.00,,2013-06-07 23:32:00,
2013-06-07 16:42:00,93.0,45.0,29.84,SW,234,8.0,18.0,19,0.00,,,0.00,,2013-06-07 23:42:00,
2013-06-07 16:58:00,91.0,47.0,29.84,SSE,157,9.0,17.0,22,0.00,,,0.00,,2013-06-07 23:58:00,
2013-06-07 17:13:00,90.0,48.0,29.84,South,187,5.0,17.0,24,0.00,,,0.00,,2013-06-08 00:13:00,
2013-06-07 17:23:00,90.0,48.0,29.84,South,187,5.0,17.0,24,0.00,,,0.00,,2013-06-08 00:23:00,
2013-06-07 17:32:00,89.0,47.0,29.82,SSW,202,9.0,15.0,24,0.00,,,0.00,,2013-06-08 00:32:00,
2013-06-07 17:43:00,89.0,47.0,29.82,SSW,202,9.0,15.0,24,0.00,,,0.00,,2013-06-08 00:43:00,
2013-06-07 17:56:00,87.0,47.0,29.83,SSE,156,10.0,18.0,25,0.00,,,0.00,,2013-06-08 00:56:00,
2013-06-07 18:02:00,86.0,47.0,29.84,SSW,198,10.0,20.0,26,0.00,,,0.00,,2013-06-08 01:02:00,
2013-06-07 18:12:00,86.0,47.0,29.84,SSW,198,10.0,20.0,26,0.00,,,0.00,,2013-06-08 01:12:00,
2013-06-07 18:23:00,86.0,47.0,29.85,South,180,12.0,20.0,26,0.00,,,0.00,,2013-06-08 01:23:00,
2013-06-07 18:42:00,85.0,46.0,29.85,SW,221,10.0,20.0,26,0.00,,,0.00,,2013-06-08 01:42:00,
2013-06-07 18:58:00,85.0,47.0,29.83,SW,214,8.0,16.0,27,0.00,,,0.00,,2013-06-08 01:58:00,
2013-06-07 19:12:00,83.0,46.0,29.83,SW,229,12.0,17.0,27,0.00,,,0.00,,2013-06-08 02:12:00,
2013-06-07 19:23:00,84.0,44.0,29.85,South,190,7.0,15.0,25,0.00,,,0.00,,2013-06-08 02:23:00,
2013-06-07 19:32:00,82.0,46.0,29.86,SW,215,6.0,12.0,28,0.00,,,0.00,,2013-06-08 02:32:00,
2013-06-07 19:43:00,82.0,46.0,29.86,SW,215,6.0,12.0,28,0.00,,,0.00,,2013-06-08 02:43:00,
2013-06-07 20:02:00,82.0,45.0,29.87,SSW,199,10.0,15.0,27,0.00,,,0.00,,2013-06-08 03:02:00,
2013-06-07 20:23:00,82.0,44.0,29.87,South,178,5.0,15.0,26,0.00,,,0.00,,2013-06-08 03:23:00,
2013-06-07 20:33:00,79.0,42.0,29.89,North,350,3.0,11.0,27,0.00,,,0.00,,2013-06-08 03:33:00,
2013-06-07 20:56:00,79.0,44.0,29.87,NW,317,0.0,7.0,29,0.00,,,0.00,,2013-06-08 03:56:00,
2013-06-07 21:02:00,77.0,44.0,29.87,NW,321,0.0,4.0,31,0.00,,,0.00,,2013-06-08 04:02:00,
2013-06-07 21:12:00,77.0,44.0,29.87,NW,321,0.0,4.0,31,0.00,,,0.00,,2013-06-08 04:12:00,
2013-06-07 21:22:00,75.0,45.0,29.85,NNE,24,2.0,5.0,35,0.00,,,0.00,,2013-06-08 04:22:00,
2013-06-07 21:33:00,75.0,46.0,29.87,NNE,25,2.0,4.0,36,0.00,,,0.00,,2013-06-08 04:33:00,
2013-06-07 21:42:00,75.0,46.0,29.87,NNE,25,2.0,4.0,36,0.00,,,0.00,,2013-06-08 04:42:00,
2013-06-07 21:53:00,75.0,48.0,29.85,NNE,25,1.0,4.0,38,0.00,,,0.00,,2013-06-08 04:53:00,
2013-06-07 22:02:00,74.0,48.0,29.86,NNE,25,1.0,3.0,40,0.00,,,0.00,,2013-06-08 05:02:00,
2013-06-07 22:12:00,74.0,48.0,29.86,NNE,25,1.0,3.0,40,0.00,,,0.00,,2013-06-08 05:12:00,
2013-06-07 22:22:00,74.0,48.0,29.85,NNW,331,0.0,3.0,40,0.00,,,0.00,,2013-06-08 05:22:00,
2013-06-07 22:32:00,74.0,49.0,29.85,NNW,331,0.0,3.0,41,0.00,,,0.00,,2013-06-08 05:32:00,
2013-06-07 22:42:00,74.0,49.0,29.85,NNW,331,0.0,3.0,41,0.00,,,0.00,,2013-06-08 05:42:00,
2013-06-07 22:52:00,74.0,48.0,29.85,NW,309,4.0,9.0,40,0.00,,,0.00,,2013-06-08 05:52:00,
2013-06-07 23:01:00,74.0,49.0,29.87,NW,307,2.0,9.0,41,0.00,,,0.00,,2013-06-08 06:01:00,
2013-06-07 23:12:00,74.0,49.0,29.87,NW,307,2.0,9.0,41,0.00,,,0.00,,2013-06-08 06:12:00,
2013-06-07 23:22:00,73.0,49.0,29.88,NW,308,1.0,5.0,42,0.00,,,0.00,,2013-06-08 06:22:00,
2013-06-07 23:31:00,73.0,49.0,29.88,NW,308,0.0,4.0,43,0.00,,,0.00,,2013-06-08 06:31:00,
2013-06-07 23:42:00,73.0,49.0,29.88,NW,308,0.0,4.0,43,0.00,,,0.00,,2013-06-08 06:42:00,
2013-06-07 23:52:00,73.0,49.0,29.85,NW,305,1.0,4.0,42,0.00,,,0.00,,2013-06-08 06:52:00,